Terminal Aerodrome Forecast
Issued by NWS Pendleton, OR

Home | Current Version | Previous Version | Text Only | Print | Product List | Glossary On
Versions: 1 2 3 4 5 6 7 8 9 10 11 12 13 14 15 16
000
FTUS46 KPDT 262320
TAFPDT
TAF
KPDT 262320Z 2700/2724 27018G26KT P6SM FEW050 BKN200
     FM270400 27020G32KT P6SM SCT060 BKN200
     FM271500 27015G25KT P6SM FEW060=

USA.gov is the U.S. government's official web portal to all federal, state and local government web resources and services.